Terminal Aerodrome Forecast
Issued by NWS

Home | Current Version | Previous Version | Text Only | Print | Product List | Glossary On
Versions: 1 2 3 4 5 6 7 8 9 10 11 12
000
FTUS45 KREV 251700
TAFCXP
TAF
KCXP 251728Z 2518/2618 24025G40KT P6SM SCT100
     FM260000 18016G25KT P6SM SCT100 BKN150 WS010/25045KT
     FM260400 28011KT P6SM SCT060
     FM261300 28005KT P6SM SKC=

USA.gov is the U.S. government's official web portal to all federal, state and local government web resources and services.